To NAV CANADA Home Page Login to a new session Search on AWWS site Disclaimer Vers la page française équivalente Tips FAQ What's new on the site To the Forecasts and Observations / NOTAM section To "File a Flight Plan" website Publications and other links Update of the User's profile FIC Telephone Numbers My Weather Data Folder Route Weather Data Regional Weather Data Local Weather Data To the Forecasts and Observations / NOTAM section
Request Generated 01/21/2018 at 20:11:54 UTC . Weather information available at that time is displayed.


Save this request

METAR/TAF

WINNIPEG/JAMES ARMSTRONG RICHARDSON INTL/MB    

METAR CYWG 212000Z 03004KT 10SM -SN OVC027 M08/M11 A3011 RMK SC8
SLP214=
SPECI CYWG 211933Z 02005KT 15SM OVC026 M08/M11 A3010 RMK SC8 SLP212=
METAR CYWG 211900Z 01004KT 350V060 15SM -SN OVC026 M08/M11 A3011 RMK
SC8 SLP214=
SPECI CYWG 211826Z 01002KT 6SM -SN FEW014 OVC026 M08/M11 A3011 RMK
SC1SC7 SLP217=
METAR CYWG 211800Z 35002KT 15SM FEW013 OVC026 M08/M11 A3012 RMK
SC1SC7 SLP218=

TAF CYWG 211738Z 2118/2218 04006KT P6SM SCT012 OVC025 TEMPO 2118/2208
4SM -SN BKN012 OVC020
FM220800 36005KT P6SM SCT006 OVC012 TEMPO 2208/2216 4SM -SN BR
OVC006
FM221600 02010KT P6SM BKN012
RMK NXT FCST BY 220000Z=

PORTAGE LA PRAIRIE/SOUTHPORT/MB    

CYPG - METAR not available

*** REMARK        : Forecast period has ended; this was the last TAF issued
*** REMARQUE : La période de prévision est échue; ceci était le dernier TAF qui a été émis
TAF AMD CYPG 192305Z 1918/2006 FCST CNCLD DUE END OF FLYING PROGRAM
RMK NXT FCST WILL BE ISSUED AT 221315Z=

BRANDON MUNICIPALITY/MB    

METAR CYBR 212000Z 11004KT 6SM BR OVC006 M05/M07 A3004 RMK ST8
SLP203=
METAR CYBR 211900Z 12004KT 6SM BR OVC006 M06/M07 A3005 RMK ST8
SLP207=
METAR CYBR 211800Z 16007KT 6SM BR OVC006 M06/M08 A3006 RMK ST8
SLP210=

TAF CYBR 211738Z 2118/2206 10008KT 4SM BR BKN005 OVC012 TEMPO
2118/2206 6SM BR SCT005 OVC012
RMK NXT FCST BY 220000Z=

KENORA/ON    

METAR CYQK 212000Z 04003KT 12SM OVC005 M05/M06 A3004 RMK SF8 SLP198=
METAR CYQK 211900Z 33003KT 320V060 10SM OVC004 M05/M06 A3003 RMK SF8
SLP197=
METAR CYQK 211800Z 34005KT 8SM OVC005 M06/M06 A3004 RMK SF8 BR CIG
RAG SLP198=

TAF CYQK 211938Z 2120/2208 VRB03KT 5SM -SN OVC004 TEMPO 2120/2121
P6SM NSW SCT004 OVC010
FM212100 VRB03KT P6SM OVC012 TEMPO 2121/2206 OVC006
FM220600 08005KT P6SM -SN OVC025
RMK NXT FCST BY 220200Z=

DRYDEN REGIONAL/ON    (show WxCam)

METAR CYHD 212000Z AUTO 05008KT 9SM OVC007 M09/M10 A3004 RMK SLP205=
METAR CYHD 211900Z AUTO 05009KT 9SM OVC007 M08/M10 A3004 RMK SLP202=
METAR CYHD 211800Z AUTO 05009KT 9SM OVC007 M08/M09 A3004 RMK SLP201=

TAF CYHD 211938Z 2120/2208 05008KT 5SM -SN OVC007 TEMPO 2120/2122
P6SM NSW OVC015
FM212200 07008KT P6SM OVC015 TEMPO 2122/2208 OVC008
BECMG 2201/2203 10006KT
RMK FCST BASED ON AUTO OBS. NXT FCST BY 220200Z=

THUNDER BAY/ON    (show WxCam)

METAR CYQT 212000Z 05005KT 1 1/2SM BR OVC006 M05/M05 A3007 RMK ST8
VIS VRB 1-2 SLP197=
SPECI CYQT 211949Z 05004KT 2SM BR OVC006 M05/M05 A3007 RMK SC8
SLP196=
SPECI CYQT 211932Z 05004KT 3SM BR OVC006 M05/M05 A3006 RMK SC8
SLP193=
METAR CYQT 211900Z 02004KT 350V050 4SM BR OVC010 M05/M05 A3005 RMK
SC8 SLP192=
SPECI CYQT 211848Z 03004KT 6SM BR SCT006 OVC010 M05/M05 A3005 RMK
SF4SC4 SLP190=
SPECI CYQT 211840Z 04005KT 340V060 5SM R07/5000VP6000FT/U -SN BKN007
OVC010 M05/M05 A3005 RMK SC6SC2 VIS LWR SW QUAD SLP190=
SPECI CYQT 211831Z 01003KT 340V060 4SM -SN OVC006 M05/M05 A3005 RMK
SC8 VIS S 2 SLP190=
SPECI CYQT 211810Z 03005KT 8SM OVC006 M05/M05 A3005 RMK SC8 SLP190=
METAR CYQT 211800Z 04006KT 5SM BR OVC004 M04/M05 A3005 RMK SC8
SLP190=

TAF CYQT 211938Z 2120/2208 VRB03KT P6SM SCT004 OVC012 TEMPO 2120/2122
3SM -SN BR OVC004
FM212200 04008KT P6SM OVC015 TEMPO 2122/2208 4SM -SN OVC008
RMK NXT FCST BY 220200Z=


Your time UTC time
Weather data provided by Environment Canada and NAV CANADA